Time;durP1;ratioP1;P1;durP2;ratioP2;P2;SDS_P1;SDS_P2;PMS_P1;PMS_P2;Temp;Humidity;BMP_temperature;BMP_pressure;BME280_temperature;BME280_humidity;BME280_pressure;Samples;Min_cycle;Max_cycle;Signal;HPM_P1;HPM_P2
2022/10/23 00:00:46;;;;;;;7.05;2.80;;;6.20;99.90;;;;;;4839063;29;20472;-81
2022/10/23 00:03:13;;;;;;;3.25;2.85;;;6.20;99.90;;;;;;4840236;29;20050;-80
2022/10/23 00:05:41;;;;;;;6.50;3.10;;;6.20;99.90;;;;;;4839194;29;20093;-80
2022/10/23 00:08:08;;;;;;;4.28;3.03;;;6.10;99.90;;;;;;4840694;29;20058;-80
2022/10/23 00:10:35;;;;;;;4.18;3.05;;;6.10;99.90;;;;;;4839403;29;20050;-80
2022/10/23 00:13:03;;;;;;;4.40;3.13;;;6.00;99.90;;;;;;4839899;29;20058;-80
2022/10/23 00:15:30;;;;;;;6.22;2.95;;;6.00;99.90;;;;;;4839225;29;20094;-80
2022/10/23 00:17:59;;;;;;;5.07;2.85;;;6.00;99.90;;;;;;4841256;29;20445;-80
2022/10/23 00:20:26;;;;;;;3.42;2.60;;;5.90;99.90;;;;;;4841326;29;20054;-80
2022/10/23 00:22:53;;;;;;;5.68;3.30;;;5.90;99.90;;;;;;4840531;29;20054;-80
2022/10/23 00:25:20;;;;;;;5.45;2.97;;;5.80;99.90;;;;;;4821050;29;20054;-80
2022/10/23 00:27:47;;;;;;;5.82;3.08;;;5.80;99.90;;;;;;4815298;29;20073;-80
2022/10/23 00:30:15;;;;;;;4.13;2.63;;;5.80;99.90;;;;;;4833447;29;20076;-79
2022/10/23 00:32:42;;;;;;;8.00;3.30;;;5.80;99.90;;;;;;4839983;29;20046;-79
2022/10/23 00:35:11;;;;;;;7.32;3.20;;;5.90;99.90;;;;;;4850265;29;20053;-79
2022/10/23 00:37:38;;;;;;;3.58;3.10;;;5.80;99.90;;;;;;4839301;29;20077;-79
2022/10/23 00:40:06;;;;;;;5.22;2.72;;;5.80;99.90;;;;;;4840087;29;20061;-80
2022/10/23 00:42:34;;;;;;;5.45;2.83;;;5.90;99.90;;;;;;4839811;29;20068;-79
2022/10/23 00:45:22;;;;;;;3.70;2.72;;;5.90;99.90;;;;;;4834763;29;20061;-79
2022/10/23 00:47:49;;;;;;;3.33;2.50;;;6.00;99.90;;;;;;4840021;29;20072;-78
2022/10/23 00:50:19;;;;;;;3.85;2.65;;;6.00;99.90;;;;;;4841920;29;20141;-77
2022/10/23 00:52:49;;;;;;;3.97;2.90;;;6.00;99.90;;;;;;4838369;29;20052;-77
2022/10/23 00:55:18;;;;;;;4.38;2.83;;;6.00;99.90;;;;;;4839543;29;20062;-78
2022/10/23 00:57:48;;;;;;;3.15;2.45;;;6.00;99.90;;;;;;4820779;29;20069;-77
2022/10/23 01:00:18;;;;;;;3.63;3.33;;;6.00;99.90;;;;;;4825143;29;20062;-77
2022/10/23 01:02:46;;;;;;;7.50;3.13;;;6.00;99.90;;;;;;4817495;29;20074;-77
2022/10/23 01:05:13;;;;;;;8.20;3.35;;;6.00;99.90;;;;;;4839789;29;20062;-77
2022/10/23 01:07:50;;;;;;;4.47;3.08;;;6.00;99.90;;;;;;4832900;29;20046;-78
2022/10/23 01:10:26;;;;;;;3.05;2.70;;;6.00;99.90;;;;;;4837858;29;20154;-77
2022/10/23 01:13:00;;;;;;;5.75;3.05;;;6.00;99.90;;;;;;4805010;29;20465;-78
2022/10/23 01:15:34;;;;;;;6.38;3.20;;;6.00;99.90;;;;;;4820686;29;20071;-77
2022/10/23 01:18:07;;;;;;;6.03;2.97;;;6.00;99.90;;;;;;4828234;29;20057;-77
2022/10/23 01:20:42;;;;;;;9.27;3.72;;;6.00;99.90;;;;;;4839231;29;20042;-77
2022/10/23 01:24:00;;;;;;;5.38;3.05;;;5.90;99.90;;;;;;4837812;29;20056;-78
2022/10/23 01:26:46;;;;;;;4.65;2.42;;;5.90;99.90;;;;;;4838345;29;20090;-77
2022/10/23 01:29:22;;;;;;;5.40;3.03;;;5.90;99.90;;;;;;4837609;29;20089;-78
2022/10/23 01:31:56;;;;;;;5.80;2.92;;;5.90;99.90;;;;;;4837953;29;20061;-79
2022/10/23 01:34:30;;;;;;;3.70;3.33;;;5.90;99.90;;;;;;4840541;29;20053;-78
2022/10/23 01:37:01;;;;;;;5.72;3.22;;;5.90;99.90;;;;;;4836722;29;20058;-79
2022/10/23 01:39:33;;;;;;;5.63;3.35;;;5.90;99.90;;;;;;4814717;29;20064;-79
2022/10/23 01:42:06;;;;;;;6.15;3.75;;;5.90;99.90;;;;;;4838037;29;20057;-79
2022/10/23 01:44:39;;;;;;;8.00;4.05;;;5.90;99.90;;;;;;4838009;29;20289;-79
2022/10/23 01:47:11;;;;;;;3.88;2.88;;;5.90;99.90;;;;;;4840605;29;20124;-79
2022/10/23 01:49:53;;;;;;;7.38;2.80;;;5.90;99.90;;;;;;4817361;29;20061;-79
2022/10/23 01:52:22;;;;;;;6.55;3.72;;;5.90;99.90;;;;;;4823254;29;20050;-79
2022/10/23 01:54:53;;;;;;;4.38;3.20;;;5.90;99.90;;;;;;4838383;29;20578;-79
2022/10/23 01:57:23;;;;;;;6.15;2.95;;;5.90;99.90;;;;;;4837733;29;20058;-80
2022/10/23 01:59:57;;;;;;;7.25;4.55;;;5.90;99.90;;;;;;4837531;29;20073;-79
2022/10/23 02:02:26;;;;;;;6.50;3.88;;;5.80;99.90;;;;;;4833339;29;20054;-80
2022/10/23 02:05:00;;;;;;;5.78;3.30;;;5.90;99.90;;;;;;4823956;29;20061;-79
2022/10/23 02:07:27;;;;;;;9.88;3.95;;;5.80;99.90;;;;;;4831542;29;20053;-80
2022/10/23 02:09:54;;;;;;;4.88;3.17;;;5.80;99.90;;;;;;4822500;29;20423;-80
2022/10/23 02:12:30;;;;;;;7.93;3.42;;;5.90;99.90;;;;;;4838361;29;20065;-79
2022/10/23 02:15:26;;;;;;;6.35;3.47;;;5.90;99.90;;;;;;4829055;29;20058;-79
2022/10/23 02:18:02;;;;;;;5.88;3.60;;;5.90;99.90;;;;;;4852849;29;20053;-80
2022/10/23 02:20:39;;;;;;;11.05;3.92;;;5.90;99.90;;;;;;4828427;29;20054;-79
2022/10/23 02:23:18;;;;;;;7.07;3.70;;;5.90;99.90;;;;;;4827480;29;20472;-79
2022/10/23 02:25:51;;;;;;;7.68;3.17;;;5.90;99.90;;;;;;4820288;29;20106;-79
2022/10/23 02:28:24;;;;;;;3.97;3.08;;;5.80;99.90;;;;;;4840818;29;20058;-80
2022/10/23 02:30:59;;;;;;;6.40;3.70;;;5.80;99.90;;;;;;4842343;29;20464;-79
2022/10/23 02:33:28;;;;;;;4.25;3.03;;;5.80;99.90;;;;;;4844057;29;20114;-80
2022/10/23 02:35:55;;;;;;;6.15;3.75;;;5.80;99.90;;;;;;4822130;29;20581;-79
2022/10/23 02:38:33;;;;;;;6.95;3.00;;;5.80;99.90;;;;;;4831467;29;20054;-80
2022/10/23 02:41:16;;;;;;;7.63;3.33;;;5.80;99.90;;;;;;4843316;29;20145;-79
2022/10/23 02:43:55;;;;;;;6.32;3.38;;;5.80;99.90;;;;;;4841155;29;20065;-79
2022/10/23 02:46:29;;;;;;;7.25;3.72;;;5.80;99.90;;;;;;4823866;29;20082;-79
2022/10/23 02:49:05;;;;;;;6.75;3.20;;;5.90;99.90;;;;;;4832539;29;20062;-79
2022/10/23 02:51:40;;;;;;;6.18;3.63;;;5.80;99.90;;;;;;4842094;29;20533;-78
2022/10/23 02:54:18;;;;;;;3.63;2.85;;;5.80;99.90;;;;;;4820246;29;20098;-80
2022/10/23 02:56:55;;;;;;;5.32;2.92;;;5.80;99.90;;;;;;4840644;29;20463;-80
2022/10/23 02:59:31;;;;;;;4.78;3.05;;;5.80;99.90;;;;;;4841668;29;20053;-80
2022/10/23 03:02:06;;;;;;;5.68;3.10;;;5.80;99.90;;;;;;4822611;29;20054;-80
2022/10/23 03:04:39;;;;;;;6.63;3.63;;;5.80;99.90;;;;;;4854629;29;20045;-80
2022/10/23 03:07:10;;;;;;;5.43;3.40;;;5.80;99.90;;;;;;4840482;29;20141;-81
2022/10/23 03:09:37;;;;;;;5.70;3.55;;;5.80;99.90;;;;;;4841982;29;20435;-80
2022/10/23 03:12:05;;;;;;;5.20;3.45;;;5.80;99.90;;;;;;4839949;29;20084;-80
2022/10/23 03:14:34;;;;;;;4.03;3.05;;;5.80;99.90;;;;;;4824646;29;20050;-81
2022/10/23 03:17:04;;;;;;;7.32;3.80;;;5.80;99.90;;;;;;4841811;29;20050;-82
2022/10/23 03:19:32;;;;;;;6.72;3.65;;;5.80;99.90;;;;;;4841465;29;20057;-80
2022/10/23 03:21:59;;;;;;;7.10;4.10;;;5.80;99.90;;;;;;4821326;29;20050;-81
2022/10/23 03:24:26;;;;;;;4.70;3.47;;;5.80;99.90;;;;;;4806706;29;20050;-79
2022/10/23 03:26:54;;;;;;;6.70;4.07;;;5.80;99.90;;;;;;4822691;29;20595;-80
2022/10/23 03:29:29;;;;;;;7.65;3.92;;;5.80;99.90;;;;;;4821200;29;20511;-79
2022/10/23 03:31:57;;;;;;;6.90;3.60;;;5.80;99.90;;;;;;4842346;29;20105;-80
2022/10/23 03:34:26;;;;;;;5.15;3.47;;;5.80;99.90;;;;;;4838620;29;20462;-80
2022/10/23 03:36:53;;;;;;;5.40;3.35;;;5.80;99.90;;;;;;4820990;29;20054;-79
2022/10/23 03:39:22;;;;;;;4.53;3.13;;;5.80;99.90;;;;;;4824085;29;20050;-80
2022/10/23 03:41:50;;;;;;;6.28;3.70;;;5.80;99.90;;;;;;4806715;29;20082;-79
2022/10/23 03:44:17;;;;;;;5.95;4.22;;;5.80;99.90;;;;;;4806505;29;20058;-79
2022/10/23 03:46:45;;;;;;;5.85;3.70;;;5.80;99.90;;;;;;4838441;29;20057;-80
2022/10/23 03:49:13;;;;;;;10.00;3.03;;;5.70;99.90;;;;;;4828688;29;20054;-79
2022/10/23 03:51:50;;;;;;;6.25;4.13;;;5.80;99.90;;;;;;4824982;29;20073;-80
2022/10/23 03:54:20;;;;;;;6.60;3.83;;;5.80;99.90;;;;;;4841087;29;20056;-80
2022/10/23 03:56:48;;;;;;;6.50;3.53;;;5.80;99.90;;;;;;4842766;29;20058;-80
2022/10/23 03:59:15;;;;;;;7.30;3.60;;;5.80;99.90;;;;;;4841135;29;20503;-80
2022/10/23 04:01:43;;;;;;;4.82;3.67;;;5.80;99.90;;;;;;4839738;29;20396;-80
2022/10/23 04:04:11;;;;;;;6.85;3.97;;;5.80;99.90;;;;;;4839069;29;20077;-79
2022/10/23 04:06:41;;;;;;;4.80;3.35;;;5.80;99.90;;;;;;4841676;29;20148;-77
2022/10/23 04:09:10;;;;;;;5.85;3.53;;;5.80;99.90;;;;;;4839169;29;20137;-77
2022/10/23 04:11:37;;;;;;;6.22;3.20;;;5.80;99.90;;;;;;4837523;29;20130;-79
2022/10/23 04:14:05;;;;;;;7.50;3.25;;;5.80;99.90;;;;;;4840954;29;20058;-80
2022/10/23 04:16:33;;;;;;;4.47;3.38;;;5.80;99.90;;;;;;4837791;29;20050;-79
2022/10/23 04:19:00;;;;;;;4.15;3.65;;;5.90;99.90;;;;;;4825187;29;20064;-80
2022/10/23 04:21:29;;;;;;;8.00;4.05;;;5.90;99.90;;;;;;4838970;29;20045;-80
2022/10/23 04:23:57;;;;;;;7.50;3.10;;;6.00;99.90;;;;;;4840749;29;20061;-79
2022/10/23 04:26:25;;;;;;;4.60;3.03;;;6.00;99.90;;;;;;4839553;29;20114;-80
2022/10/23 04:28:52;;;;;;;3.45;3.10;;;5.90;99.90;;;;;;4839930;29;20122;-79
2022/10/23 04:31:20;;;;;;;6.15;3.70;;;5.90;99.90;;;;;;4840442;29;20067;-79
2022/10/23 04:33:47;;;;;;;7.07;3.42;;;5.90;99.90;;;;;;4840829;29;20511;-79
2022/10/23 04:36:27;;;;;;;9.07;3.78;;;5.90;99.90;;;;;;4837735;29;20065;-79
2022/10/23 04:38:55;;;;;;;5.85;3.88;;;5.90;99.90;;;;;;4840074;29;20068;-79
2022/10/23 04:41:22;;;;;;;5.93;3.55;;;5.90;99.90;;;;;;4822312;29;20050;-79
2022/10/23 04:43:51;;;;;;;8.63;4.00;;;5.80;99.90;;;;;;4839960;29;20084;-79
2022/10/23 04:46:18;;;;;;;10.63;3.83;;;5.80;99.90;;;;;;4823283;29;20042;-80
2022/10/23 04:48:48;;;;;;;5.25;3.97;;;5.80;99.90;;;;;;4839530;29;20141;-80
2022/10/23 04:51:45;;;;;;;6.25;3.97;;;5.80;99.90;;;;;;4836903;29;20058;-79
2022/10/23 04:54:38;;;;;;;5.68;4.07;;;5.80;99.90;;;;;;4822849;29;20058;-80
2022/10/23 04:57:23;;;;;;;4.68;3.33;;;5.80;99.90;;;;;;4840317;29;20058;-79
2022/10/23 05:00:07;;;;;;;9.27;4.38;;;5.80;99.90;;;;;;4821400;29;20054;-80
2022/10/23 05:02:41;;;;;;;8.55;4.95;;;5.90;99.90;;;;;;4833655;29;20157;-79
2022/10/23 05:05:09;;;;;;;6.65;4.20;;;5.80;99.90;;;;;;4837997;29;20107;-80
2022/10/23 05:07:55;;;;;;;8.32;3.88;;;5.80;99.90;;;;;;4839533;29;20057;-79
2022/10/23 05:10:43;;;;;;;6.50;3.65;;;5.80;99.90;;;;;;4840955;29;20110;-80
2022/10/23 05:13:15;;;;;;;4.30;3.47;;;5.80;99.90;;;;;;4820155;29;20081;-79
2022/10/23 05:15:44;;;;;;;7.80;3.92;;;5.70;99.90;;;;;;4821349;29;20081;-80
2022/10/23 05:18:15;;;;;;;5.10;3.95;;;5.70;99.90;;;;;;4834354;29;20393;-80
2022/10/23 05:20:47;;;;;;;8.07;4.63;;;5.70;99.90;;;;;;4823094;29;20543;-79
2022/10/23 05:23:18;;;;;;;10.07;4.40;;;5.70;99.90;;;;;;4836418;29;20054;-79
2022/10/23 05:25:54;;;;;;;8.23;3.85;;;5.70;99.90;;;;;;4839324;29;20053;-82
2022/10/23 05:28:22;;;;;;;6.82;4.10;;;5.70;99.90;;;;;;4840323;29;20160;-80
2022/10/23 05:30:51;;;;;;;12.73;4.38;;;5.70;99.90;;;;;;4838715;29;21476;-81
2022/10/23 05:33:19;;;;;;;6.93;3.88;;;5.70;99.90;;;;;;4822184;29;20685;-82
2022/10/23 05:35:48;;;;;;;7.50;4.03;;;5.80;99.90;;;;;;4842943;29;20626;-81
2022/10/23 05:38:17;;;;;;;6.78;3.47;;;5.80;99.90;;;;;;4825662;29;20489;-79
2022/10/23 05:40:44;;;;;;;4.63;3.47;;;5.90;99.90;;;;;;4841057;29;20050;-81
2022/10/23 05:43:18;;;;;;;7.45;4.15;;;5.90;99.90;;;;;;4839108;29;20141;-81
2022/10/23 05:45:52;;;;;;;6.93;3.42;;;5.80;99.90;;;;;;4839149;29;20102;-83
2022/10/23 05:48:38;;;;;;;10.52;4.47;;;5.80;99.90;;;;;;4841089;29;20058;-80
2022/10/23 05:51:24;;;;;;;7.30;4.22;;;5.90;99.90;;;;;;4839423;29;20053;-80
2022/10/23 05:53:56;;;;;;;9.13;5.28;;;5.90;99.90;;;;;;4838782;29;20065;-79
2022/10/23 05:56:32;;;;;;;6.43;3.75;;;5.90;99.90;;;;;;4807182;29;20164;-81
2022/10/23 05:59:09;;;;;;;8.40;4.22;;;6.00;99.90;;;;;;4810883;29;20054;-80
2022/10/23 06:01:59;;;;;;;7.40;5.20;;;6.00;99.90;;;;;;4839643;29;20144;-79
2022/10/23 06:04:39;;;;;;;8.48;4.43;;;6.00;99.90;;;;;;4831816;29;20061;-81
2022/10/23 06:07:12;;;;;;;8.05;4.53;;;6.10;99.90;;;;;;4823801;29;20057;-81
2022/10/23 06:09:40;;;;;;;7.78;4.85;;;6.10;99.90;;;;;;4838271;29;20105;-85
2022/10/23 06:12:08;;;;;;;9.25;4.53;;;6.10;99.90;;;;;;4839631;29;20065;-86
2022/10/23 06:14:35;;;;;;;7.53;4.88;;;6.00;99.90;;;;;;4835198;29;20406;-85
2022/10/23 06:17:05;;;;;;;9.10;4.63;;;6.10;99.90;;;;;;4838674;29;20150;-82
2022/10/23 06:19:43;;;;;;;8.65;4.78;;;6.10;99.90;;;;;;4817276;29;20107;-80
2022/10/23 06:22:11;;;;;;;7.45;4.32;;;6.10;99.90;;;;;;4847334;29;20076;-78
2022/10/23 06:24:49;;;;;;;11.73;6.65;;;6.00;99.90;;;;;;4837858;29;20407;-78
2022/10/23 06:27:23;;;;;;;13.00;5.22;;;6.00;99.90;;;;;;4826161;29;20053;-79
2022/10/23 06:29:56;;;;;;;8.32;5.43;;;6.00;99.90;;;;;;4832364;29;20085;-79
2022/10/23 06:32:24;;;;;;;8.55;4.70;;;6.00;99.90;;;;;;4841900;29;20077;-83
2022/10/23 06:35:08;;;;;;;11.70;5.65;;;6.00;99.90;;;;;;4834789;29;20144;-78
2022/10/23 06:37:36;;;;;;;12.05;5.63;;;6.10;99.90;;;;;;4833761;29;20046;-79
2022/10/23 06:40:11;;;;;;;10.60;5.65;;;6.10;99.90;;;;;;4815398;29;20107;-83
2022/10/23 06:42:59;;;;;;;11.73;5.50;;;6.20;99.90;;;;;;4836556;29;20146;-81
2022/10/23 06:45:55;;;;;;;7.90;4.85;;;6.20;99.90;;;;;;4819969;29;20415;-81
2022/10/23 06:48:48;;;;;;;11.07;5.07;;;6.20;99.90;;;;;;4838578;29;20133;-80
2022/10/23 06:51:28;;;;;;;10.40;5.05;;;6.20;99.90;;;;;;4835461;29;20076;-81
2022/10/23 06:53:55;;;;;;;15.00;7.03;;;6.20;99.90;;;;;;4836867;29;20050;-81
2022/10/23 06:56:42;;;;;;;8.68;5.15;;;6.20;99.90;;;;;;4838651;29;20057;-79
2022/10/23 06:59:10;;;;;;;14.15;5.03;;;6.20;99.90;;;;;;4838631;29;20064;-79
2022/10/23 07:01:41;;;;;;;12.50;5.22;;;6.20;99.90;;;;;;4834214;29;20053;-83
2022/10/23 07:04:13;;;;;;;15.77;4.60;;;6.30;99.90;;;;;;4838640;29;20526;-83
2022/10/23 07:06:57;;;;;;;12.10;4.80;;;6.30;99.90;;;;;;4828250;29;20161;-82
2022/10/23 07:09:33;;;;;;;6.82;4.85;;;6.30;99.90;;;;;;4843241;29;20041;-85
2022/10/23 07:12:18;;;;;;;8.50;5.18;;;6.40;99.90;;;;;;4837432;29;20059;-83
2022/10/23 07:14:51;;;;;;;11.20;6.03;;;6.50;99.90;;;;;;4819593;29;20046;-83
2022/10/23 07:17:18;;;;;;;17.45;5.13;;;6.50;99.90;;;;;;4849305;29;20423;-83
2022/10/23 07:19:49;;;;;;;10.38;4.85;;;6.60;99.90;;;;;;4837364;29;20057;-84
2022/10/23 07:22:16;;;;;;;10.52;4.55;;;6.60;99.90;;;;;;4829902;29;20172;-79
2022/10/23 07:25:16;;;;;;;8.13;4.72;;;6.70;99.90;;;;;;4818600;29;20062;-77
2022/10/23 07:27:45;;;;;;;8.85;4.93;;;6.70;99.90;;;;;;4827660;29;20134;-84
2022/10/23 07:30:14;;;;;;;10.27;4.53;;;6.80;99.90;;;;;;4840915;29;20515;-83
2022/10/23 07:32:49;;;;;;;14.00;4.88;;;6.80;99.90;;;;;;4833401;29;20061;-84
2022/10/23 07:35:40;;;;;;;7.30;5.05;;;6.80;99.90;;;;;;4847365;29;20060;-79
2022/10/23 07:38:24;;;;;;;11.98;5.47;;;6.80;99.90;;;;;;4836573;29;20066;-84
2022/10/23 07:40:57;;;;;;;13.48;5.72;;;6.90;99.90;;;;;;4845190;29;20061;-84
2022/10/23 07:43:25;;;;;;;13.65;5.70;;;6.90;99.90;;;;;;4850830;29;20110;-81
2022/10/23 07:45:53;;;;;;;11.38;5.45;;;7.00;99.90;;;;;;4837238;29;20574;-80
2022/10/23 07:48:31;;;;;;;19.48;6.85;;;7.00;99.90;;;;;;4816932;29;20058;-83
2022/10/23 07:51:02;;;;;;;8.63;5.68;;;7.00;99.90;;;;;;4828092;29;20054;-83
2022/10/23 07:53:31;;;;;;;8.77;5.65;;;7.10;99.90;;;;;;4831392;29;20060;-83
2022/10/23 07:56:12;;;;;;;13.57;6.53;;;7.10;99.90;;;;;;4847797;29;20545;-85
2022/10/23 07:58:58;;;;;;;7.78;5.78;;;7.20;99.90;;;;;;4849137;29;21025;-87
2022/10/23 08:01:45;;;;;;;8.52;5.70;;;7.30;99.90;;;;;;4839290;29;20046;-87
2022/10/23 08:04:23;;;;;;;12.52;6.13;;;7.40;99.90;;;;;;4841297;29;20054;-85
2022/10/23 08:07:08;;;;;;;12.57;6.47;;;7.50;99.90;;;;;;4842555;29;20046;-86
2022/10/23 08:09:43;;;;;;;13.10;7.88;;;7.50;99.90;;;;;;4827444;29;20076;-84
2022/10/23 08:12:14;;;;;;;14.95;7.95;;;7.40;99.90;;;;;;4837988;29;20038;-82
2022/10/23 08:14:43;;;;;;;12.68;6.68;;;7.40;99.90;;;;;;4827124;29;20081;-82
2022/10/23 08:17:13;;;;;;;9.30;6.25;;;7.40;99.90;;;;;;4822053;29;20050;-82
2022/10/23 08:20:07;;;;;;;11.73;6.53;;;7.40;99.90;;;;;;4834957;29;20058;-83
2022/10/23 08:22:42;;;;;;;12.15;6.45;;;7.40;99.90;;;;;;4826431;29;20042;-81
2022/10/23 08:25:11;;;;;;;15.55;6.57;;;7.40;99.90;;;;;;4830110;29;20140;-82
2022/10/23 08:27:39;;;;;;;14.07;6.47;;;7.40;99.90;;;;;;4833263;29;20053;-79
2022/10/23 08:30:09;;;;;;;11.75;6.53;;;7.40;99.90;;;;;;4821093;29;20066;-84
2022/10/23 08:32:36;;;;;;;10.85;6.47;;;7.40;99.90;;;;;;4831639;29;20058;-82
2022/10/23 08:35:04;;;;;;;11.90;6.35;;;7.30;99.90;;;;;;4822838;29;20050;-83
2022/10/23 08:37:33;;;;;;;14.02;7.63;;;7.30;99.90;;;;;;4830880;29;20053;-83
2022/10/23 08:40:02;;;;;;;12.63;7.50;;;7.40;99.90;;;;;;4836460;29;20054;-84
2022/10/23 08:42:58;;;;;;;16.45;7.25;;;7.40;99.90;;;;;;4833939;29;20046;-85
2022/10/23 08:45:34;;;;;;;14.68;7.28;;;7.50;99.90;;;;;;4855509;29;20056;-85
2022/10/23 08:48:16;;;;;;;10.63;6.07;;;7.60;99.90;;;;;;4825819;29;20050;-80
2022/10/23 08:51:11;;;;;;;16.48;7.15;;;7.70;99.90;;;;;;4834251;29;20054;-83
2022/10/23 08:53:46;;;;;;;13.50;7.95;;;7.70;99.90;;;;;;4831503;29;20408;-82
2022/10/23 08:56:22;;;;;;;11.20;6.93;;;7.70;99.90;;;;;;4832169;29;20053;-85
2022/10/23 08:58:57;;;;;;;16.65;7.95;;;7.70;99.90;;;;;;4830979;29;20050;-79
2022/10/23 09:01:37;;;;;;;10.93;7.88;;;7.70;99.90;;;;;;4832574;29;20432;-81
2022/10/23 09:04:06;;;;;;;11.48;7.55;;;7.70;99.90;;;;;;4834729;29;20454;-85
2022/10/23 09:06:44;;;;;;;17.45;7.28;;;7.70;99.90;;;;;;4836464;29;20066;-82
2022/10/23 09:09:42;;;;;;;8.10;6.47;;;7.70;99.90;;;;;;4840083;29;20071;-88
2022/10/23 09:12:15;;;;;;;14.98;7.47;;;7.70;99.90;;;;;;4836306;29;20404;-82
2022/10/23 09:14:57;;;;;;;17.38;8.27;;;7.70;99.90;;;;;;4838114;29;20099;-87
2022/10/23 09:17:29;;;;;;;11.68;6.93;;;7.70;99.90;;;;;;4825787;29;20055;-84
2022/10/23 09:20:05;;;;;;;17.83;7.72;;;7.60;99.90;;;;;;4825124;29;20074;-84
2022/10/23 09:22:32;;;;;;;14.23;7.90;;;7.70;99.90;;;;;;4813883;29;20153;-82
2022/10/23 09:25:00;;;;;;;19.65;8.05;;;7.70;99.90;;;;;;4841196;29;20051;-86
2022/10/23 09:27:45;;;;;;;12.20;6.82;;;7.80;99.90;;;;;;4839514;29;20410;-88
2022/10/23 09:30:30;;;;;;;14.82;8.82;;;7.90;99.90;;;;;;4832067;29;20053;-87
2022/10/23 09:32:59;;;;;;;18.05;9.80;;;8.00;99.90;;;;;;4847170;29;20057;-85
2022/10/23 09:35:36;;;;;;;16.85;9.07;;;8.10;99.90;;;;;;4857831;29;20060;-88
2022/10/23 09:38:04;;;;;;;17.08;9.63;;;8.10;99.90;;;;;;4869172;29;20995;-88
2022/10/23 09:40:39;;;;;;;14.65;8.75;;;8.10;99.90;;;;;;4850807;29;20109;-81
2022/10/23 09:43:16;;;;;;;20.17;9.63;;;8.10;99.90;;;;;;4852478;29;20471;-82
2022/10/23 09:45:55;;;;;;;18.75;9.45;;;8.10;99.90;;;;;;4829549;29;20135;-81
2022/10/23 09:48:27;;;;;;;22.08;10.27;;;8.10;99.90;;;;;;4850370;29;20054;-83
2022/10/23 09:50:59;;;;;;;24.17;9.73;;;8.10;99.90;;;;;;4857862;29;20057;-83
2022/10/23 09:53:34;;;;;;;23.27;9.77;;;8.20;99.90;;;;;;4857579;29;20529;-85
2022/10/23 09:56:04;;;;;;;21.42;10.07;;;8.20;99.90;;;;;;4835644;29;20073;-82
2022/10/23 09:58:38;;;;;;;21.23;10.82;;;8.30;99.90;;;;;;4847050;29;20053;-83
2022/10/23 10:01:06;;;;;;;23.60;10.98;;;8.30;99.90;;;;;;4846110;29;20582;-80
2022/10/23 10:03:51;;;;;;;17.38;11.43;;;8.40;99.90;;;;;;4834051;29;20073;-83
2022/10/23 10:06:24;;;;;;;17.52;10.50;;;8.40;99.90;;;;;;4849910;29;20050;-81
2022/10/23 10:08:54;;;;;;;19.15;11.02;;;8.40;99.90;;;;;;4854465;29;20053;-85
2022/10/23 10:11:31;;;;;;;17.85;11.13;;;8.50;99.90;;;;;;4852229;29;20049;-88
2022/10/23 10:14:49;;;;;;;17.90;10.65;;;8.50;99.90;;;;;;4842392;29;20078;-85
2022/10/23 10:17:35;;;;;;;17.23;10.67;;;8.60;99.90;;;;;;4847777;29;20118;-90
2022/10/23 10:20:41;;;;;;;22.75;10.80;;;8.60;99.90;;;;;;4850330;29;20090;-89
2022/10/23 10:23:22;;;;;;;21.08;11.65;;;8.70;99.90;;;;;;4816227;29;20426;-89
2022/10/23 10:26:02;;;;;;;21.30;13.27;;;8.70;99.90;;;;;;4869654;29;20041;-86
2022/10/23 10:28:53;;;;;;;25.58;13.57;;;8.70;99.90;;;;;;4852795;29;20049;-87
2022/10/23 10:31:30;;;;;;;19.48;13.32;;;8.70;99.90;;;;;;4961876;23;21323;-88
2022/10/23 10:34:14;;;;;;;19.15;12.27;;;8.70;99.90;;;;;;4868429;29;20129;-85
2022/10/23 10:36:47;;;;;;;;;;;8.70;99.90;;;;;;4856379;29;20159;-86
2022/10/23 10:39:42;;;;;;;18.70;12.52;;;8.50;99.90;;;;;;4888461;29;19995;-90
2022/10/23 10:42:38;;;;;;;19.90;13.18;;;8.50;99.90;;;;;;4846054;29;20036;-87
2022/10/23 10:45:26;;;;;;;23.88;14.35;;;8.50;99.90;;;;;;4844174;29;20505;-87
2022/10/23 10:48:18;;;;;;;29.30;15.18;;;8.60;99.90;;;;;;4883514;23;20054;31
2022/10/23 10:51:47;;;;;;;27.33;14.63;;;8.70;99.90;;;;;;4764405;30;20047;-87
2022/10/23 10:54:25;;;;;;;27.77;16.02;;;8.70;99.90;;;;;;4811270;29;20220;-83
2022/10/23 10:56:58;;;;;;;36.75;18.10;;;8.80;99.90;;;;;;4788208;29;20146;-86
2022/10/23 10:59:29;;;;;;;27.60;18.05;;;8.80;99.90;;;;;;4803505;29;20070;-84
2022/10/23 11:02:02;;;;;;;29.30;19.75;;;8.80;99.90;;;;;;4793776;29;20122;-83
2022/10/23 11:04:39;;;;;;;29.10;18.58;;;8.70;99.90;;;;;;4807572;29;20054;-84
2022/10/23 11:07:14;;;;;;;27.30;17.52;;;8.60;99.90;;;;;;4795293;29;20154;-90
2022/10/23 11:09:44;;;;;;;36.17;18.73;;;8.50;99.90;;;;;;4795303;29;20051;-90
2022/10/23 11:12:19;;;;;;;38.40;19.85;;;8.40;99.90;;;;;;4820017;29;20074;-88
2022/10/23 11:14:50;;;;;;;35.00;21.00;;;8.40;99.90;;;;;;4806646;29;20113;-88
2022/10/23 11:17:25;;;;;;;30.52;19.92;;;8.40;99.90;;;;;;4811091;29;20115;-88
2022/10/23 11:20:06;;;;;;;26.98;18.10;;;8.40;99.90;;;;;;4794548;29;20054;-88
2022/10/23 11:22:39;;;;;;;28.23;19.17;;;8.40;99.90;;;;;;4808812;29;20116;-86
2022/10/23 11:25:26;;;;;;;26.63;18.52;;;8.30;99.90;;;;;;4791449;29;20047;-85
2022/10/23 11:28:17;;;;;;;25.75;17.88;;;8.20;99.90;;;;;;4806288;29;20066;-85
2022/10/23 11:31:00;;;;;;;26.42;17.13;;;8.10;99.90;;;;;;4823195;29;20050;-87
2022/10/23 11:34:05;;;;;;;30.08;18.67;;;8.10;99.90;;;;;;4814053;29;20470;-88
2022/10/23 11:36:46;;;;;;;27.00;16.52;;;8.00;99.90;;;;;;4809047;29;20091;-86
2022/10/23 11:39:23;;;;;;;29.45;18.52;;;8.00;99.90;;;;;;4809954;29;20074;-89
2022/10/23 11:41:56;;;;;;;28.88;17.35;;;8.10;99.90;;;;;;4792329;29;20181;-90
2022/10/23 11:44:39;;;;;;;28.98;18.60;;;8.20;99.90;;;;;;4806346;29;20050;-87
2022/10/23 11:47:30;;;;;;;38.45;23.90;;;8.10;99.90;;;;;;4814048;29;20061;-89
2022/10/23 11:50:26;;;;;;;40.78;25.02;;;8.20;99.90;;;;;;4810043;29;20144;-87
2022/10/23 11:52:59;;;;;;;45.40;28.35;;;8.20;99.90;;;;;;4806190;29;20065;-86
2022/10/23 11:55:35;;;;;;;48.63;31.13;;;8.30;99.90;;;;;;4800739;29;20111;-87
2022/10/23 11:58:25;;;;;;;65.15;36.85;;;8.30;99.90;;;;;;4823641;29;20062;-90
2022/10/23 12:01:02;;;;;;;46.08;30.15;;;8.40;99.90;;;;;;4814234;29;20082;-89
2022/10/23 12:03:41;;;;;;;53.47;31.58;;;8.40;99.90;;;;;;4806709;29;20050;-79
2022/10/23 12:06:22;;;;;;;55.42;36.40;;;8.30;99.90;;;;;;4819880;29;20054;-78
2022/10/23 12:08:56;;;;;;;56.90;36.35;;;8.30;99.90;;;;;;4775013;29;20050;-81
2022/10/23 12:11:29;;;;;;;46.58;29.23;;;8.30;99.90;;;;;;4804245;29;20503;-86
2022/10/23 12:13:56;;;;;;;37.65;25.10;;;8.30;99.90;;;;;;4802168;29;20062;-81
2022/10/23 12:16:34;;;;;;;46.70;26.90;;;8.30;99.90;;;;;;4790277;29;20051;-81
2022/10/23 12:19:18;;;;;;;39.33;25.40;;;8.30;99.90;;;;;;4800573;29;20059;-80
2022/10/23 12:21:48;;;;;;;43.55;28.45;;;8.30;99.90;;;;;;4804338;29;20149;-81
2022/10/23 12:24:38;;;;;;;44.47;29.63;;;8.30;99.90;;;;;;4797260;29;20107;-83
2022/10/23 12:27:26;;;;;;;41.55;27.25;;;8.30;99.90;;;;;;4804305;29;20059;-78
2022/10/23 12:30:13;;;;;;;42.53;29.25;;;8.30;99.90;;;;;;4793096;29;20595;-79
2022/10/23 12:32:57;;;;;;;44.70;26.17;;;8.30;99.90;;;;;;4811725;29;20126;-82
2022/10/23 12:35:48;;;;;;;44.20;27.67;;;8.30;99.90;;;;;;4788959;29;20054;-83
2022/10/23 12:38:18;;;;;;;41.60;25.67;;;8.20;99.90;;;;;;4792733;29;20078;-83
2022/10/23 12:40:50;;;;;;;37.67;23.20;;;8.20;99.90;;;;;;4802422;29;20058;-84
2022/10/23 12:43:30;;;;;;;34.60;22.65;;;8.20;99.90;;;;;;4801464;29;20568;-80
2022/10/23 12:46:03;;;;;;;35.97;23.35;;;8.20;99.90;;;;;;4801773;29;20055;-81
2022/10/23 12:48:33;;;;;;;31.00;19.90;;;8.20;99.90;;;;;;4816851;29;20051;-79
2022/10/23 12:51:01;;;;;;;28.38;20.05;;;8.20;99.90;;;;;;4804890;29;20047;-81
2022/10/23 12:53:28;;;;;;;31.10;20.50;;;8.10;99.90;;;;;;4802982;29;20054;-81
2022/10/23 12:56:00;;;;;;;33.50;20.75;;;8.10;99.90;;;;;;4802743;29;20058;-79
2022/10/23 12:58:31;;;;;;;27.13;20.02;;;8.10;99.90;;;;;;4801600;29;20556;-81
2022/10/23 13:01:03;;;;;;;33.60;21.92;;;8.00;99.90;;;;;;4805527;29;20377;-78
2022/10/23 13:03:33;;;;;;;28.77;20.48;;;8.10;99.90;;;;;;4800424;29;20058;-81
2022/10/23 13:06:02;;;;;;;34.45;19.38;;;8.10;99.90;;;;;;4803285;29;20050;-79
2022/10/23 13:08:34;;;;;;;24.33;17.00;;;8.10;99.90;;;;;;4805380;29;20133;-81
2022/10/23 13:11:24;;;;;;;25.52;17.77;;;8.20;99.90;;;;;;4800268;29;20063;-82
2022/10/23 13:13:58;;;;;;;22.70;15.63;;;8.30;99.90;;;;;;4800891;29;20070;-81
2022/10/23 13:16:27;;;;;;;20.85;15.85;;;8.30;99.90;;;;;;4789823;29;20057;-88
2022/10/23 13:18:55;;;;;;;24.67;16.38;;;8.30;99.90;;;;;;4792404;29;20058;-86
2022/10/23 13:21:25;;;;;;;21.15;14.07;;;8.40;99.90;;;;;;4805230;29;20057;-86
2022/10/23 13:23:54;;;;;;;20.25;15.45;;;8.50;99.90;;;;;;4794901;29;20112;-84
2022/10/23 13:26:31;;;;;;;23.73;14.77;;;8.50;99.90;;;;;;4788946;29;20055;-85
2022/10/23 13:29:27;;;;;;;22.42;14.88;;;8.60;99.90;;;;;;4818695;23;20053;-84
2022/10/23 13:31:55;;;;;;;20.85;15.57;;;8.70;99.90;;;;;;4821589;29;20061;-84